Methow, Washington
Current Conditions -  °F | °C
As of 9:11 AM on Sunday 23 Nov 2014 (Local Time) from KOMK Reporting Station
Haze Haze  
Wind Chill: 28°   Ceiling: 100
Heat Index: 28°   Visibility: 2mi
Dew Point: 24°   Wind: 0mph
Humidity: 85%   Direction: NA
Pressure: 30.04"   Gusts: NA
Location:  48.13°N, 120.01°W
Report Text: KOMK 231711Z AUTO 00000KT 2SM BR BKN001 OVC080 M02/M04 A3004 RMK AO2 T10221044
Loading
Personal Weather Stations






























Interactive Weather Map New forecast layout! Learn more

10-Day Weather Forecast

Advertisements
Track Severe Weather on mobile